sensor_id;sensor_type;location;lat;lon;timestamp;P1;durP1;ratioP1;P2;durP2;ratioP2
62673;SDS011;62269;47.594;17.638;2023-07-20T00:00:18;9.23;;;4.90;;
62673;SDS011;62269;47.594;17.638;2023-07-20T00:01:15;7.87;;;4.97;;
62673;SDS011;62269;47.594;17.638;2023-07-20T00:02:13;7.62;;;5.18;;
62673;SDS011;62269;47.594;17.638;2023-07-20T00:03:12;10.57;;;5.03;;
62673;SDS011;62269;47.594;17.638;2023-07-20T00:04:13;8.77;;;5.00;;
62673;SDS011;62269;47.594;17.638;2023-07-20T00:05:11;7.43;;;4.95;;
62673;SDS011;62269;47.594;17.638;2023-07-20T00:06:08;6.82;;;5.00;;
62673;SDS011;62269;47.594;17.638;2023-07-20T00:07:05;6.72;;;5.03;;
62673;SDS011;62269;47.594;17.638;2023-07-20T00:08:02;8.60;;;4.85;;
62673;SDS011;62269;47.594;17.638;2023-07-20T00:09:00;8.38;;;5.00;;
62673;SDS011;62269;47.594;17.638;2023-07-20T00:09:57;6.87;;;5.28;;
62673;SDS011;62269;47.594;17.638;2023-07-20T00:10:54;7.25;;;4.47;;
62673;SDS011;62269;47.594;17.638;2023-07-20T00:11:52;6.47;;;4.50;;
62673;SDS011;62269;47.594;17.638;2023-07-20T00:12:49;6.65;;;4.50;;
62673;SDS011;62269;47.594;17.638;2023-07-20T00:13:46;6.50;;;4.87;;
62673;SDS011;62269;47.594;17.638;2023-07-20T00:14:43;7.62;;;4.68;;
62673;SDS011;62269;47.594;17.638;2023-07-20T00:15:40;9.18;;;5.50;;
62673;SDS011;62269;47.594;17.638;2023-07-20T00:16:37;6.43;;;4.93;;
62673;SDS011;62269;47.594;17.638;2023-07-20T00:17:35;6.57;;;4.70;;
62673;SDS011;62269;47.594;17.638;2023-07-20T00:18:33;6.47;;;5.03;;
62673;SDS011;62269;47.594;17.638;2023-07-20T00:19:31;7.40;;;4.32;;
62673;SDS011;62269;47.594;17.638;2023-07-20T00:20:28;7.57;;;5.22;;
62673;SDS011;62269;47.594;17.638;2023-07-20T00:21:26;8.90;;;5.28;;
62673;SDS011;62269;47.594;17.638;2023-07-20T00:22:23;7.37;;;4.50;;
62673;SDS011;62269;47.594;17.638;2023-07-20T00:23:20;7.12;;;4.90;;
62673;SDS011;62269;47.594;17.638;2023-07-20T00:24:19;8.43;;;4.68;;
62673;SDS011;62269;47.594;17.638;2023-07-20T00:25:16;6.80;;;4.95;;
62673;SDS011;62269;47.594;17.638;2023-07-20T00:26:14;6.28;;;4.62;;
62673;SDS011;62269;47.594;17.638;2023-07-20T00:27:12;6.30;;;4.65;;
62673;SDS011;62269;47.594;17.638;2023-07-20T00:28:09;9.88;;;5.43;;
62673;SDS011;62269;47.594;17.638;2023-07-20T00:29:06;6.05;;;4.53;;
62673;SDS011;62269;47.594;17.638;2023-07-20T00:30:03;6.87;;;4.80;;
62673;SDS011;62269;47.594;17.638;2023-07-20T00:31:01;7.00;;;4.55;;
62673;SDS011;62269;47.594;17.638;2023-07-20T00:31:59;8.63;;;4.50;;
62673;SDS011;62269;47.594;17.638;2023-07-20T00:32:56;6.07;;;4.60;;
62673;SDS011;62269;47.594;17.638;2023-07-20T00:33:53;6.70;;;4.65;;
62673;SDS011;62269;47.594;17.638;2023-07-20T00:34:51;8.45;;;5.22;;
62673;SDS011;62269;47.594;17.638;2023-07-20T00:35:48;7.12;;;4.75;;
62673;SDS011;62269;47.594;17.638;2023-07-20T00:36:45;6.05;;;4.90;;
62673;SDS011;62269;47.594;17.638;2023-07-20T00:37:42;9.20;;;4.72;;
62673;SDS011;62269;47.594;17.638;2023-07-20T00:38:39;6.07;;;4.57;;
62673;SDS011;62269;47.594;17.638;2023-07-20T00:39:37;6.03;;;4.95;;
62673;SDS011;62269;47.594;17.638;2023-07-20T00:40:38;9.13;;;5.20;;
62673;SDS011;62269;47.594;17.638;2023-07-20T00:41:36;6.87;;;4.57;;
62673;SDS011;62269;47.594;17.638;2023-07-20T00:42:33;7.15;;;4.87;;
62673;SDS011;62269;47.594;17.638;2023-07-20T00:43:30;8.15;;;4.93;;
62673;SDS011;62269;47.594;17.638;2023-07-20T00:44:28;8.20;;;4.82;;
62673;SDS011;62269;47.594;17.638;2023-07-20T00:45:25;7.57;;;5.00;;
62673;SDS011;62269;47.594;17.638;2023-07-20T00:46:23;6.32;;;4.70;;
62673;SDS011;62269;47.594;17.638;2023-07-20T00:48:21;8.40;;;5.20;;
62673;SDS011;62269;47.594;17.638;2023-07-20T00:49:18;8.20;;;4.62;;
62673;SDS011;62269;47.594;17.638;2023-07-20T00:50:17;6.30;;;4.50;;
62673;SDS011;62269;47.594;17.638;2023-07-20T00:51:14;7.97;;;5.05;;
62673;SDS011;62269;47.594;17.638;2023-07-20T00:52:12;10.30;;;4.82;;
62673;SDS011;62269;47.594;17.638;2023-07-20T00:53:11;6.50;;;4.68;;
62673;SDS011;62269;47.594;17.638;2023-07-20T00:54:08;8.35;;;4.90;;
62673;SDS011;62269;47.594;17.638;2023-07-20T00:55:06;6.80;;;4.75;;
62673;SDS011;62269;47.594;17.638;2023-07-20T00:56:04;8.10;;;5.05;;
62673;SDS011;62269;47.594;17.638;2023-07-20T00:57:01;9.00;;;5.10;;
62673;SDS011;62269;47.594;17.638;2023-07-20T00:57:59;10.80;;;5.32;;
62673;SDS011;62269;47.594;17.638;2023-07-20T00:58:56;6.47;;;5.10;;
62673;SDS011;62269;47.594;17.638;2023-07-20T00:59:54;6.55;;;5.18;;
62673;SDS011;62269;47.594;17.638;2023-07-20T01:00:51;7.40;;;4.80;;
62673;SDS011;62269;47.594;17.638;2023-07-20T01:01:48;9.02;;;5.35;;
62673;SDS011;62269;47.594;17.638;2023-07-20T01:02:46;8.40;;;5.15;;
62673;SDS011;62269;47.594;17.638;2023-07-20T01:03:43;5.90;;;4.80;;
62673;SDS011;62269;47.594;17.638;2023-07-20T01:04:41;9.73;;;4.97;;
62673;SDS011;62269;47.594;17.638;2023-07-20T01:05:40;8.25;;;4.72;;
62673;SDS011;62269;47.594;17.638;2023-07-20T01:06:59;7.35;;;5.05;;
62673;SDS011;62269;47.594;17.638;2023-07-20T01:08:06;7.45;;;4.97;;
62673;SDS011;62269;47.594;17.638;2023-07-20T01:10:54;8.77;;;4.90;;
62673;SDS011;62269;47.594;17.638;2023-07-20T01:12:56;7.12;;;4.93;;
62673;SDS011;62269;47.594;17.638;2023-07-20T01:13:54;8.82;;;5.32;;
62673;SDS011;62269;47.594;17.638;2023-07-20T01:14:52;7.03;;;4.90;;
62673;SDS011;62269;47.594;17.638;2023-07-20T01:15:49;7.80;;;5.35;;
62673;SDS011;62269;47.594;17.638;2023-07-20T01:16:48;7.85;;;5.00;;
62673;SDS011;62269;47.594;17.638;2023-07-20T01:17:47;9.63;;;5.25;;
62673;SDS011;62269;47.594;17.638;2023-07-20T01:18:44;7.10;;;5.12;;
62673;SDS011;62269;47.594;17.638;2023-07-20T01:19:41;10.40;;;6.15;;
62673;SDS011;62269;47.594;17.638;2023-07-20T01:20:38;11.02;;;6.18;;
62673;SDS011;62269;47.594;17.638;2023-07-20T01:21:51;8.13;;;5.10;;
62673;SDS011;62269;47.594;17.638;2023-07-20T01:25:53;8.30;;;5.18;;
62673;SDS011;62269;47.594;17.638;2023-07-20T01:28:16;7.12;;;4.93;;
62673;SDS011;62269;47.594;17.638;2023-07-20T01:30:44;6.82;;;4.70;;
62673;SDS011;62269;47.594;17.638;2023-07-20T01:31:48;8.95;;;5.40;;
62673;SDS011;62269;47.594;17.638;2023-07-20T01:33:46;6.25;;;5.03;;
62673;SDS011;62269;47.594;17.638;2023-07-20T01:34:43;7.82;;;5.18;;
62673;SDS011;62269;47.594;17.638;2023-07-20T01:35:41;7.93;;;5.30;;
62673;SDS011;62269;47.594;17.638;2023-07-20T01:36:40;7.57;;;4.85;;
62673;SDS011;62269;47.594;17.638;2023-07-20T01:37:38;6.55;;;4.82;;
62673;SDS011;62269;47.594;17.638;2023-07-20T01:38:36;9.48;;;5.53;;
62673;SDS011;62269;47.594;17.638;2023-07-20T01:39:34;6.28;;;5.07;;
62673;SDS011;62269;47.594;17.638;2023-07-20T01:40:32;7.22;;;5.50;;
62673;SDS011;62269;47.594;17.638;2023-07-20T01:41:29;6.75;;;5.00;;
62673;SDS011;62269;47.594;17.638;2023-07-20T01:42:26;8.50;;;5.20;;
62673;SDS011;62269;47.594;17.638;2023-07-20T01:43:23;7.82;;;5.50;;
62673;SDS011;62269;47.594;17.638;2023-07-20T01:44:20;8.40;;;5.47;;
62673;SDS011;62269;47.594;17.638;2023-07-20T01:45:17;7.75;;;5.65;;
62673;SDS011;62269;47.594;17.638;2023-07-20T01:46:15;7.60;;;4.90;;
62673;SDS011;62269;47.594;17.638;2023-07-20T01:47:12;7.82;;;4.80;;
62673;SDS011;62269;47.594;17.638;2023-07-20T01:48:09;11.23;;;5.22;;
62673;SDS011;62269;47.594;17.638;2023-07-20T01:49:07;7.85;;;5.30;;
62673;SDS011;62269;47.594;17.638;2023-07-20T01:50:04;6.87;;;5.00;;
62673;SDS011;62269;47.594;17.638;2023-07-20T01:51:02;6.25;;;4.93;;
62673;SDS011;62269;47.594;17.638;2023-07-20T01:51:59;7.97;;;5.30;;
62673;SDS011;62269;47.594;17.638;2023-07-20T01:52:56;6.22;;;5.05;;
62673;SDS011;62269;47.594;17.638;2023-07-20T01:53:53;8.95;;;5.65;;
62673;SDS011;62269;47.594;17.638;2023-07-20T01:54:51;7.70;;;5.03;;
62673;SDS011;62269;47.594;17.638;2023-07-20T01:55:48;8.75;;;5.07;;
62673;SDS011;62269;47.594;17.638;2023-07-20T01:56:45;7.37;;;5.45;;
62673;SDS011;62269;47.594;17.638;2023-07-20T01:57:42;8.30;;;5.72;;
62673;SDS011;62269;47.594;17.638;2023-07-20T01:58:39;8.88;;;5.30;;
62673;SDS011;62269;47.594;17.638;2023-07-20T01:59:36;7.87;;;5.10;;
62673;SDS011;62269;47.594;17.638;2023-07-20T02:00:34;6.90;;;5.12;;
62673;SDS011;62269;47.594;17.638;2023-07-20T02:01:31;8.48;;;5.22;;
62673;SDS011;62269;47.594;17.638;2023-07-20T02:02:28;6.05;;;5.35;;
62673;SDS011;62269;47.594;17.638;2023-07-20T02:03:25;7.75;;;5.30;;
62673;SDS011;62269;47.594;17.638;2023-07-20T02:04:23;8.02;;;5.28;;
62673;SDS011;62269;47.594;17.638;2023-07-20T02:05:20;8.20;;;5.80;;
62673;SDS011;62269;47.594;17.638;2023-07-20T02:06:17;7.90;;;5.53;;
62673;SDS011;62269;47.594;17.638;2023-07-20T02:07:15;7.57;;;5.45;;
62673;SDS011;62269;47.594;17.638;2023-07-20T02:08:12;9.95;;;6.15;;
62673;SDS011;62269;47.594;17.638;2023-07-20T02:09:09;9.38;;;5.70;;
62673;SDS011;62269;47.594;17.638;2023-07-20T02:10:07;8.88;;;5.40;;
62673;SDS011;62269;47.594;17.638;2023-07-20T02:11:04;8.23;;;5.65;;
62673;SDS011;62269;47.594;17.638;2023-07-20T02:12:01;7.65;;;5.50;;
62673;SDS011;62269;47.594;17.638;2023-07-20T02:12:58;6.85;;;5.15;;
62673;SDS011;62269;47.594;17.638;2023-07-20T02:13:56;9.13;;;5.22;;
62673;SDS011;62269;47.594;17.638;2023-07-20T02:14:53;7.18;;;5.95;;
62673;SDS011;62269;47.594;17.638;2023-07-20T02:15:50;7.70;;;5.40;;
62673;SDS011;62269;47.594;17.638;2023-07-20T02:16:47;13.52;;;5.95;;
62673;SDS011;62269;47.594;17.638;2023-07-20T02:17:48;9.95;;;5.78;;
62673;SDS011;62269;47.594;17.638;2023-07-20T02:18:46;10.35;;;5.60;;
62673;SDS011;62269;47.594;17.638;2023-07-20T02:19:43;8.45;;;5.30;;
62673;SDS011;62269;47.594;17.638;2023-07-20T02:20:40;11.85;;;5.37;;
62673;SDS011;62269;47.594;17.638;2023-07-20T02:21:38;7.03;;;5.40;;
62673;SDS011;62269;47.594;17.638;2023-07-20T02:22:38;7.03;;;5.20;;
62673;SDS011;62269;47.594;17.638;2023-07-20T02:23:36;7.75;;;5.53;;
62673;SDS011;62269;47.594;17.638;2023-07-20T02:24:33;8.63;;;5.40;;
62673;SDS011;62269;47.594;17.638;2023-07-20T02:25:31;6.90;;;5.40;;
62673;SDS011;62269;47.594;17.638;2023-07-20T02:26:28;7.30;;;5.28;;
62673;SDS011;62269;47.594;17.638;2023-07-20T02:27:25;9.63;;;6.00;;
62673;SDS011;62269;47.594;17.638;2023-07-20T02:28:22;8.27;;;5.32;;
62673;SDS011;62269;47.594;17.638;2023-07-20T02:29:20;7.95;;;5.65;;
62673;SDS011;62269;47.594;17.638;2023-07-20T02:30:17;9.57;;;5.97;;
62673;SDS011;62269;47.594;17.638;2023-07-20T02:31:14;9.07;;;6.00;;
62673;SDS011;62269;47.594;17.638;2023-07-20T02:32:12;8.10;;;6.10;;
62673;SDS011;62269;47.594;17.638;2023-07-20T02:33:09;8.40;;;5.65;;
62673;SDS011;62269;47.594;17.638;2023-07-20T02:34:06;7.45;;;5.78;;
62673;SDS011;62269;47.594;17.638;2023-07-20T02:35:03;8.80;;;5.43;;
62673;SDS011;62269;47.594;17.638;2023-07-20T02:36:01;7.97;;;6.10;;
62673;SDS011;62269;47.594;17.638;2023-07-20T02:36:58;10.30;;;6.53;;
62673;SDS011;62269;47.594;17.638;2023-07-20T02:37:57;8.10;;;6.03;;
62673;SDS011;62269;47.594;17.638;2023-07-20T02:38:54;8.45;;;5.87;;
62673;SDS011;62269;47.594;17.638;2023-07-20T02:39:51;11.65;;;5.80;;
62673;SDS011;62269;47.594;17.638;2023-07-20T02:40:48;11.20;;;6.18;;
62673;SDS011;62269;47.594;17.638;2023-07-20T02:41:46;7.18;;;5.60;;
62673;SDS011;62269;47.594;17.638;2023-07-20T02:42:44;9.25;;;6.20;;
62673;SDS011;62269;47.594;17.638;2023-07-20T02:43:41;8.82;;;5.93;;
62673;SDS011;62269;47.594;17.638;2023-07-20T02:44:38;7.57;;;5.70;;
62673;SDS011;62269;47.594;17.638;2023-07-20T02:45:35;7.90;;;5.78;;
62673;SDS011;62269;47.594;17.638;2023-07-20T02:46:32;9.82;;;5.93;;
62673;SDS011;62269;47.594;17.638;2023-07-20T02:47:31;11.20;;;5.93;;
62673;SDS011;62269;47.594;17.638;2023-07-20T02:48:28;8.40;;;5.65;;
62673;SDS011;62269;47.594;17.638;2023-07-20T02:49:26;7.43;;;5.47;;
62673;SDS011;62269;47.594;17.638;2023-07-20T02:50:23;8.60;;;6.03;;
62673;SDS011;62269;47.594;17.638;2023-07-20T02:51:20;9.18;;;5.37;;
62673;SDS011;62269;47.594;17.638;2023-07-20T02:52:18;6.87;;;5.93;;
62673;SDS011;62269;47.594;17.638;2023-07-20T02:53:18;9.45;;;5.72;;
62673;SDS011;62269;47.594;17.638;2023-07-20T02:54:15;10.38;;;6.07;;
62673;SDS011;62269;47.594;17.638;2023-07-20T02:55:12;9.05;;;5.82;;
62673;SDS011;62269;47.594;17.638;2023-07-20T02:56:09;10.20;;;5.22;;
62673;SDS011;62269;47.594;17.638;2023-07-20T02:57:06;12.93;;;5.53;;
62673;SDS011;62269;47.594;17.638;2023-07-20T02:58:03;10.63;;;6.03;;
62673;SDS011;62269;47.594;17.638;2023-07-20T02:59:01;8.60;;;6.03;;
62673;SDS011;62269;47.594;17.638;2023-07-20T02:59:58;10.35;;;5.70;;
62673;SDS011;62269;47.594;17.638;2023-07-20T03:00:56;8.30;;;5.12;;
62673;SDS011;62269;47.594;17.638;2023-07-20T03:01:53;8.95;;;5.80;;
62673;SDS011;62269;47.594;17.638;2023-07-20T03:02:51;7.90;;;5.90;;
62673;SDS011;62269;47.594;17.638;2023-07-20T03:03:52;9.02;;;5.35;;
62673;SDS011;62269;47.594;17.638;2023-07-20T03:04:49;9.48;;;5.55;;
62673;SDS011;62269;47.594;17.638;2023-07-20T03:05:46;10.07;;;5.75;;
62673;SDS011;62269;47.594;17.638;2023-07-20T03:06:43;7.70;;;5.40;;
62673;SDS011;62269;47.594;17.638;2023-07-20T03:07:41;8.68;;;5.72;;
62673;SDS011;62269;47.594;17.638;2023-07-20T03:08:40;8.68;;;5.70;;
62673;SDS011;62269;47.594;17.638;2023-07-20T03:09:38;8.98;;;5.53;;
62673;SDS011;62269;47.594;17.638;2023-07-20T03:10:39;9.02;;;5.35;;
62673;SDS011;62269;47.594;17.638;2023-07-20T03:11:37;7.28;;;5.80;;
62673;SDS011;62269;47.594;17.638;2023-07-20T03:12:35;8.75;;;5.45;;
62673;SDS011;62269;47.594;17.638;2023-07-20T03:13:32;9.52;;;5.68;;
62673;SDS011;62269;47.594;17.638;2023-07-20T03:14:29;8.25;;;5.90;;
62673;SDS011;62269;47.594;17.638;2023-07-20T03:15:26;7.97;;;5.72;;
62673;SDS011;62269;47.594;17.638;2023-07-20T03:16:24;7.87;;;5.47;;
62673;SDS011;62269;47.594;17.638;2023-07-20T03:17:22;7.75;;;5.35;;
62673;SDS011;62269;47.594;17.638;2023-07-20T03:18:19;6.90;;;5.18;;
62673;SDS011;62269;47.594;17.638;2023-07-20T03:19:16;7.22;;;5.72;;
62673;SDS011;62269;47.594;17.638;2023-07-20T03:20:13;7.15;;;5.32;;
62673;SDS011;62269;47.594;17.638;2023-07-20T03:21:10;8.00;;;5.37;;
62673;SDS011;62269;47.594;17.638;2023-07-20T03:22:08;10.98;;;6.18;;
62673;SDS011;62269;47.594;17.638;2023-07-20T03:23:05;7.57;;;5.55;;
62673;SDS011;62269;47.594;17.638;2023-07-20T03:24:02;7.45;;;5.45;;
62673;SDS011;62269;47.594;17.638;2023-07-20T03:24:59;8.50;;;5.53;;
62673;SDS011;62269;47.594;17.638;2023-07-20T03:25:57;7.45;;;5.65;;
62673;SDS011;62269;47.594;17.638;2023-07-20T03:26:54;9.40;;;5.55;;
62673;SDS011;62269;47.594;17.638;2023-07-20T03:27:51;7.18;;;5.90;;
62673;SDS011;62269;47.594;17.638;2023-07-20T03:28:48;8.70;;;5.75;;
62673;SDS011;62269;47.594;17.638;2023-07-20T03:29:45;8.15;;;5.82;;
62673;SDS011;62269;47.594;17.638;2023-07-20T03:30:42;8.40;;;6.00;;
62673;SDS011;62269;47.594;17.638;2023-07-20T03:31:39;10.02;;;5.72;;
62673;SDS011;62269;47.594;17.638;2023-07-20T03:32:37;8.13;;;5.78;;
62673;SDS011;62269;47.594;17.638;2023-07-20T03:33:34;7.47;;;5.70;;
62673;SDS011;62269;47.594;17.638;2023-07-20T03:34:31;7.82;;;5.53;;
62673;SDS011;62269;47.594;17.638;2023-07-20T03:35:29;10.90;;;6.28;;
62673;SDS011;62269;47.594;17.638;2023-07-20T03:36:26;7.62;;;5.68;;
62673;SDS011;62269;47.594;17.638;2023-07-20T03:37:23;8.65;;;5.60;;
62673;SDS011;62269;47.594;17.638;2023-07-20T03:38:21;8.00;;;5.80;;
62673;SDS011;62269;47.594;17.638;2023-07-20T03:39:18;9.07;;;5.85;;
62673;SDS011;62269;47.594;17.638;2023-07-20T03:40:16;7.87;;;5.32;;
62673;SDS011;62269;47.594;17.638;2023-07-20T03:41:13;8.80;;;6.43;;
62673;SDS011;62269;47.594;17.638;2023-07-20T03:42:12;8.88;;;5.78;;
62673;SDS011;62269;47.594;17.638;2023-07-20T03:43:10;10.10;;;6.45;;
62673;SDS011;62269;47.594;17.638;2023-07-20T03:44:07;7.60;;;6.10;;
62673;SDS011;62269;47.594;17.638;2023-07-20T03:45:04;8.75;;;5.80;;
62673;SDS011;62269;47.594;17.638;2023-07-20T03:46:02;10.02;;;6.50;;
62673;SDS011;62269;47.594;17.638;2023-07-20T03:47:03;7.32;;;5.47;;
62673;SDS011;62269;47.594;17.638;2023-07-20T03:48:01;6.07;;;5.40;;
62673;SDS011;62269;47.594;17.638;2023-07-20T03:48:59;7.40;;;5.87;;
62673;SDS011;62269;47.594;17.638;2023-07-20T03:49:57;7.35;;;5.78;;
62673;SDS011;62269;47.594;17.638;2023-07-20T03:50:54;10.60;;;6.45;;
62673;SDS011;62269;47.594;17.638;2023-07-20T03:51:51;8.93;;;5.90;;
62673;SDS011;62269;47.594;17.638;2023-07-20T03:52:48;10.15;;;6.07;;
62673;SDS011;62269;47.594;17.638;2023-07-20T03:53:45;7.87;;;5.68;;
62673;SDS011;62269;47.594;17.638;2023-07-20T03:54:43;8.73;;;5.45;;
62673;SDS011;62269;47.594;17.638;2023-07-20T03:55:47;9.00;;;5.53;;
62673;SDS011;62269;47.594;17.638;2023-07-20T03:56:45;7.57;;;5.70;;
62673;SDS011;62269;47.594;17.638;2023-07-20T03:57:42;7.68;;;5.40;;
62673;SDS011;62269;47.594;17.638;2023-07-20T03:58:39;10.35;;;5.40;;
62673;SDS011;62269;47.594;17.638;2023-07-20T03:59:37;7.32;;;5.40;;
62673;SDS011;62269;47.594;17.638;2023-07-20T04:00:35;7.35;;;5.80;;
62673;SDS011;62269;47.594;17.638;2023-07-20T04:01:32;10.80;;;5.85;;
62673;SDS011;62269;47.594;17.638;2023-07-20T04:02:33;8.90;;;5.25;;
62673;SDS011;62269;47.594;17.638;2023-07-20T04:03:31;8.98;;;6.07;;
62673;SDS011;62269;47.594;17.638;2023-07-20T04:04:28;9.68;;;5.55;;
62673;SDS011;62269;47.594;17.638;2023-07-20T04:05:25;7.30;;;5.30;;
62673;SDS011;62269;47.594;17.638;2023-07-20T04:06:22;8.57;;;5.80;;
62673;SDS011;62269;47.594;17.638;2023-07-20T04:07:20;7.53;;;5.47;;
62673;SDS011;62269;47.594;17.638;2023-07-20T04:08:17;7.03;;;5.60;;
62673;SDS011;62269;47.594;17.638;2023-07-20T04:09:14;8.32;;;6.07;;
62673;SDS011;62269;47.594;17.638;2023-07-20T04:10:12;7.43;;;5.20;;
62673;SDS011;62269;47.594;17.638;2023-07-20T04:11:09;8.93;;;5.78;;
62673;SDS011;62269;47.594;17.638;2023-07-20T04:12:06;8.27;;;6.12;;
62673;SDS011;62269;47.594;17.638;2023-07-20T04:13:04;9.23;;;5.50;;
62673;SDS011;62269;47.594;17.638;2023-07-20T04:14:01;9.75;;;5.97;;
62673;SDS011;62269;47.594;17.638;2023-07-20T04:14:58;9.32;;;5.85;;
62673;SDS011;62269;47.594;17.638;2023-07-20T04:15:55;7.72;;;5.50;;
62673;SDS011;62269;47.594;17.638;2023-07-20T04:16:53;8.85;;;6.03;;
62673;SDS011;62269;47.594;17.638;2023-07-20T04:17:50;7.20;;;5.65;;
62673;SDS011;62269;47.594;17.638;2023-07-20T04:18:47;8.88;;;5.60;;
62673;SDS011;62269;47.594;17.638;2023-07-20T04:19:44;9.77;;;5.85;;
62673;SDS011;62269;47.594;17.638;2023-07-20T04:20:41;7.93;;;5.68;;
62673;SDS011;62269;47.594;17.638;2023-07-20T04:21:39;8.18;;;5.82;;
62673;SDS011;62269;47.594;17.638;2023-07-20T04:23:36;7.40;;;5.85;;
62673;SDS011;62269;47.594;17.638;2023-07-20T04:24:34;8.27;;;5.93;;
62673;SDS011;62269;47.594;17.638;2023-07-20T04:25:31;7.05;;;5.60;;
62673;SDS011;62269;47.594;17.638;2023-07-20T04:26:36;7.57;;;5.32;;
62673;SDS011;62269;47.594;17.638;2023-07-20T04:27:33;7.45;;;5.37;;
62673;SDS011;62269;47.594;17.638;2023-07-20T04:28:31;10.55;;;5.95;;
62673;SDS011;62269;47.594;17.638;2023-07-20T04:29:28;7.47;;;5.18;;
62673;SDS011;62269;47.594;17.638;2023-07-20T04:30:25;8.13;;;5.60;;
62673;SDS011;62269;47.594;17.638;2023-07-20T04:31:22;12.43;;;5.25;;
62673;SDS011;62269;47.594;17.638;2023-07-20T04:32:19;6.87;;;5.45;;
62673;SDS011;62269;47.594;17.638;2023-07-20T04:33:16;7.28;;;5.43;;
62673;SDS011;62269;47.594;17.638;2023-07-20T04:34:14;7.40;;;5.97;;
62673;SDS011;62269;47.594;17.638;2023-07-20T04:35:16;6.72;;;5.35;;
62673;SDS011;62269;47.594;17.638;2023-07-20T04:36:14;9.07;;;5.20;;
62673;SDS011;62269;47.594;17.638;2023-07-20T04:37:16;9.07;;;6.03;;
62673;SDS011;62269;47.594;17.638;2023-07-20T04:38:14;7.53;;;6.10;;
62673;SDS011;62269;47.594;17.638;2023-07-20T04:39:14;7.28;;;5.47;;
62673;SDS011;62269;47.594;17.638;2023-07-20T04:40:26;7.15;;;5.30;;
62673;SDS011;62269;47.594;17.638;2023-07-20T04:41:24;8.48;;;5.85;;
62673;SDS011;62269;47.594;17.638;2023-07-20T04:42:21;10.48;;;5.85;;
62673;SDS011;62269;47.594;17.638;2023-07-20T04:43:19;8.60;;;6.07;;
62673;SDS011;62269;47.594;17.638;2023-07-20T04:44:16;8.00;;;5.60;;
62673;SDS011;62269;47.594;17.638;2023-07-20T04:45:13;6.80;;;5.37;;
62673;SDS011;62269;47.594;17.638;2023-07-20T04:46:11;9.55;;;6.57;;
62673;SDS011;62269;47.594;17.638;2023-07-20T04:47:08;8.00;;;6.00;;
62673;SDS011;62269;47.594;17.638;2023-07-20T04:48:06;7.40;;;5.72;;
62673;SDS011;62269;47.594;17.638;2023-07-20T04:49:07;7.05;;;5.57;;
62673;SDS011;62269;47.594;17.638;2023-07-20T04:50:04;8.10;;;5.47;;
62673;SDS011;62269;47.594;17.638;2023-07-20T04:51:02;7.12;;;5.55;;
62673;SDS011;62269;47.594;17.638;2023-07-20T04:51:59;8.25;;;5.90;;
62673;SDS011;62269;47.594;17.638;2023-07-20T04:52:57;7.50;;;5.70;;
62673;SDS011;62269;47.594;17.638;2023-07-20T04:53:54;9.27;;;5.47;;
62673;SDS011;62269;47.594;17.638;2023-07-20T04:54:51;9.70;;;5.80;;
62673;SDS011;62269;47.594;17.638;2023-07-20T04:55:49;16.52;;;5.93;;
62673;SDS011;62269;47.594;17.638;2023-07-20T04:56:51;7.43;;;5.60;;
62673;SDS011;62269;47.594;17.638;2023-07-20T04:57:48;7.87;;;5.28;;
62673;SDS011;62269;47.594;17.638;2023-07-20T04:58:45;10.52;;;5.50;;
62673;SDS011;62269;47.594;17.638;2023-07-20T04:59:42;9.60;;;5.78;;
62673;SDS011;62269;47.594;17.638;2023-07-20T05:00:39;6.93;;;5.80;;
62673;SDS011;62269;47.594;17.638;2023-07-20T05:01:36;8.43;;;5.62;;
62673;SDS011;62269;47.594;17.638;2023-07-20T05:02:34;7.57;;;5.62;;
62673;SDS011;62269;47.594;17.638;2023-07-20T05:03:31;6.60;;;5.18;;
62673;SDS011;62269;47.594;17.638;2023-07-20T05:04:29;6.97;;;5.60;;
62673;SDS011;62269;47.594;17.638;2023-07-20T05:05:34;9.30;;;5.80;;
62673;SDS011;62269;47.594;17.638;2023-07-20T05:06:31;9.07;;;5.78;;
62673;SDS011;62269;47.594;17.638;2023-07-20T05:07:28;7.20;;;5.68;;
62673;SDS011;62269;47.594;17.638;2023-07-20T05:08:25;8.27;;;5.93;;
62673;SDS011;62269;47.594;17.638;2023-07-20T05:09:24;9.88;;;5.97;;
62673;SDS011;62269;47.594;17.638;2023-07-20T05:10:21;11.12;;;7.03;;
62673;SDS011;62269;47.594;17.638;2023-07-20T05:11:18;9.88;;;6.18;;
62673;SDS011;62269;47.594;17.638;2023-07-20T05:12:15;8.85;;;6.05;;
62673;SDS011;62269;47.594;17.638;2023-07-20T05:13:16;8.43;;;5.90;;
62673;SDS011;62269;47.594;17.638;2023-07-20T05:14:13;9.02;;;6.35;;
62673;SDS011;62269;47.594;17.638;2023-07-20T05:15:10;8.52;;;6.22;;
62673;SDS011;62269;47.594;17.638;2023-07-20T05:16:08;9.70;;;6.53;;
62673;SDS011;62269;47.594;17.638;2023-07-20T05:17:06;7.93;;;5.72;;
62673;SDS011;62269;47.594;17.638;2023-07-20T05:18:03;10.57;;;6.22;;
62673;SDS011;62269;47.594;17.638;2023-07-20T05:19:00;9.35;;;5.85;;
62673;SDS011;62269;47.594;17.638;2023-07-20T05:19:57;6.72;;;5.37;;
62673;SDS011;62269;47.594;17.638;2023-07-20T05:20:54;8.73;;;5.80;;
62673;SDS011;62269;47.594;17.638;2023-07-20T05:21:51;7.40;;;5.10;;
62673;SDS011;62269;47.594;17.638;2023-07-20T05:22:54;6.85;;;4.87;;
62673;SDS011;62269;47.594;17.638;2023-07-20T05:23:52;6.97;;;5.32;;
62673;SDS011;62269;47.594;17.638;2023-07-20T05:24:49;6.35;;;5.62;;
62673;SDS011;62269;47.594;17.638;2023-07-20T05:25:46;8.85;;;5.20;;
62673;SDS011;62269;47.594;17.638;2023-07-20T05:26:43;6.85;;;5.18;;
62673;SDS011;62269;47.594;17.638;2023-07-20T05:27:41;7.45;;;5.70;;
62673;SDS011;62269;47.594;17.638;2023-07-20T05:28:38;7.78;;;5.87;;
62673;SDS011;62269;47.594;17.638;2023-07-20T05:29:35;8.55;;;5.72;;
62673;SDS011;62269;47.594;17.638;2023-07-20T05:30:33;9.45;;;5.22;;
62673;SDS011;62269;47.594;17.638;2023-07-20T05:31:30;9.98;;;5.28;;
62673;SDS011;62269;47.594;17.638;2023-07-20T05:32:28;8.35;;;5.50;;
62673;SDS011;62269;47.594;17.638;2023-07-20T05:33:25;6.70;;;5.45;;
62673;SDS011;62269;47.594;17.638;2023-07-20T05:34:22;8.68;;;5.30;;
62673;SDS011;62269;47.594;17.638;2023-07-20T05:35:20;7.75;;;5.80;;
62673;SDS011;62269;47.594;17.638;2023-07-20T05:36:17;11.57;;;6.32;;
62673;SDS011;62269;47.594;17.638;2023-07-20T05:37:14;9.18;;;6.20;;
62673;SDS011;62269;47.594;17.638;2023-07-20T05:38:12;7.65;;;5.60;;
62673;SDS011;62269;47.594;17.638;2023-07-20T05:39:11;8.40;;;5.30;;
62673;SDS011;62269;47.594;17.638;2023-07-20T05:40:08;7.85;;;5.68;;
62673;SDS011;62269;47.594;17.638;2023-07-20T05:41:08;6.80;;;5.25;;
62673;SDS011;62269;47.594;17.638;2023-07-20T05:42:07;8.00;;;5.60;;
62673;SDS011;62269;47.594;17.638;2023-07-20T05:43:04;9.30;;;5.90;;
62673;SDS011;62269;47.594;17.638;2023-07-20T05:44:01;7.68;;;5.53;;
62673;SDS011;62269;47.594;17.638;2023-07-20T05:44:59;8.05;;;5.60;;
62673;SDS011;62269;47.594;17.638;2023-07-20T05:45:56;7.78;;;5.53;;
62673;SDS011;62269;47.594;17.638;2023-07-20T05:46:53;9.68;;;5.78;;
62673;SDS011;62269;47.594;17.638;2023-07-20T05:47:53;6.87;;;6.03;;
62673;SDS011;62269;47.594;17.638;2023-07-20T05:48:51;8.07;;;5.68;;
62673;SDS011;62269;47.594;17.638;2023-07-20T05:49:48;9.32;;;5.50;;
62673;SDS011;62269;47.594;17.638;2023-07-20T05:50:45;8.57;;;5.50;;
62673;SDS011;62269;47.594;17.638;2023-07-20T05:51:42;10.82;;;6.07;;
62673;SDS011;62269;47.594;17.638;2023-07-20T05:52:40;7.12;;;5.50;;
62673;SDS011;62269;47.594;17.638;2023-07-20T05:53:37;7.97;;;6.03;;
62673;SDS011;62269;47.594;17.638;2023-07-20T05:54:35;7.68;;;5.50;;